createdAt,value
2019-03-04T00:03:23.465Z,0.57
2019-03-04T00:08:48.234Z,0.59
2019-03-04T00:14:16.873Z,0.52
2019-03-04T00:19:45.698Z,0.58
2019-03-04T00:25:07.413Z,0.59
2019-03-04T00:30:30.931Z,0.58
2019-03-04T00:35:52.572Z,0.50
2019-03-04T00:41:14.826Z,0.51
2019-03-04T00:46:36.699Z,0.49
2019-03-04T00:51:58.388Z,0.37
2019-03-04T00:57:20.891Z,0.35
2019-03-04T01:02:46.428Z,0.40
2019-03-04T01:08:08.312Z,0.30
2019-03-04T01:13:29.581Z,0.29
2019-03-04T01:18:51.541Z,0.31
2019-03-04T01:24:17.993Z,0.36
2019-03-04T01:29:40.281Z,0.36
2019-03-04T01:35:02.552Z,0.31
2019-03-04T01:40:24.256Z,0.19
2019-03-04T01:45:49.216Z,0.05
2019-03-04T01:51:11.982Z,0.01
2019-03-04T01:56:36.480Z,0.00
2019-03-04T02:02:08.895Z,-0.08
2019-03-04T02:07:30.339Z,-0.11
2019-03-04T02:12:53.247Z,-0.12
2019-03-04T02:18:16.950Z,-0.06
2019-03-04T02:23:40.600Z,-0.21
2019-03-04T02:29:02.237Z,-0.30
2019-03-04T02:34:24.570Z,-0.30
2019-03-04T02:39:48.072Z,-0.17
2019-03-04T02:45:14.367Z,-0.18
2019-03-04T02:50:38.133Z,-0.11
2019-03-04T02:55:59.328Z,-0.16
2019-03-04T03:01:33.536Z,-0.20
2019-03-04T03:06:54.665Z,-0.10
2019-03-04T03:12:17.263Z,-0.03
2019-03-04T03:17:39.549Z,-0.17
2019-03-04T03:23:02.320Z,-0.13
2019-03-04T03:28:25.712Z,-0.04
2019-03-04T03:33:48.146Z,0.02
2019-03-04T03:39:09.702Z,0.08
2019-03-04T03:44:30.973Z,0.24
2019-03-04T03:49:51.892Z,0.29
2019-03-04T03:55:15.886Z,0.30
2019-03-04T04:00:37.713Z,0.38
2019-03-04T04:06:00.545Z,0.51
2019-03-04T04:11:24.211Z,0.75
2019-03-04T04:16:45.754Z,0.73
2019-03-04T04:22:08.208Z,0.64
2019-03-04T04:27:30.636Z,0.63
2019-03-04T04:32:54.254Z,0.67
2019-03-04T04:38:17.074Z,0.66
2019-03-04T04:43:39.972Z,0.56
2019-03-04T04:49:03.285Z,0.47
2019-03-04T04:54:24.895Z,0.34
2019-03-04T04:59:48.322Z,0.34
2019-03-04T05:05:11.997Z,0.31
2019-03-04T05:10:38.397Z,0.28
2019-03-04T05:16:02.293Z,0.42
2019-03-04T05:21:24.776Z,0.47
2019-03-04T05:26:46.938Z,0.42
2019-03-04T05:32:11.431Z,0.57
2019-03-04T05:37:33.473Z,0.88
2019-03-04T05:42:57.601Z,0.90
2019-03-04T05:48:20.822Z,1.18
2019-03-04T05:53:42.699Z,1.37
2019-03-04T05:59:04.443Z,1.69
2019-03-04T06:04:29.674Z,1.69
2019-03-04T06:09:51.158Z,1.72
2019-03-04T06:15:15.356Z,1.87
2019-03-04T06:20:37.324Z,1.73
2019-03-04T06:26:12.072Z,1.82
2019-03-04T06:31:36.367Z,1.85
2019-03-04T06:36:57.277Z,2.09
2019-03-04T06:42:21.428Z,2.22
2019-03-04T06:47:42.180Z,2.43
2019-03-04T06:53:03.316Z,2.60
2019-03-04T06:58:26.427Z,2.80
2019-03-04T07:03:56.535Z,3.08
2019-03-04T07:09:24.289Z,3.36
2019-03-04T07:14:46.744Z,3.62
2019-03-04T07:20:11.059Z,3.88
2019-03-04T07:25:34.641Z,4.17
2019-03-04T07:30:57.204Z,4.48
2019-03-04T07:36:19.507Z,4.52
2019-03-04T07:47:32.288Z,4.66
2019-03-04T07:52:57.183Z,4.73
2019-03-04T07:58:19.502Z,5.18
2019-03-04T08:03:50.331Z,5.55
2019-03-04T08:09:45.561Z,5.31
2019-03-04T08:15:30.321Z,5.78
2019-03-04T08:20:54.349Z,5.68
2019-03-04T08:26:15.778Z,5.78
2019-03-04T08:31:36.987Z,5.74
2019-03-04T08:37:00.180Z,5.77
2019-03-04T08:42:22.717Z,5.88
2019-03-04T08:47:48.676Z,6.08
2019-03-04T09:00:19.738Z,6.54
2019-03-04T09:05:46.335Z,6.75
2019-03-04T09:11:09.416Z,6.87
2019-03-04T09:16:31.398Z,7.03
2019-03-04T09:21:54.309Z,7.62
2019-03-04T09:27:16.887Z,7.48
2019-03-04T09:32:41.265Z,7.81
2019-03-04T09:38:04.771Z,7.96
2019-03-04T09:43:32.960Z,7.90
2019-03-04T09:48:59.107Z,7.93
2019-03-04T09:54:20.353Z,8.13
2019-03-04T09:59:41.953Z,8.35
2019-03-04T10:05:47.257Z,8.50
2019-03-04T10:11:47.969Z,8.73
2019-03-04T10:17:18.869Z,8.55
2019-03-04T10:23:16.619Z,8.83
2019-03-04T10:36:11.553Z,9.28
2019-03-04T10:42:08.611Z,9.28
2019-03-04T10:48:32.971Z,9.45
2019-03-04T10:54:01.543Z,9.46
2019-03-04T10:59:29.417Z,9.80
2019-03-04T11:05:18.462Z,9.84
2019-03-04T11:10:48.223Z,9.86
2019-03-04T11:16:15.943Z,10.00
2019-03-04T11:21:38.927Z,10.57
2019-03-04T11:27:01.867Z,10.63
2019-03-04T11:32:28.261Z,10.29
2019-03-04T11:37:53.015Z,10.73
2019-03-04T11:43:17.436Z,10.92
2019-03-04T11:48:39.217Z,10.73
2019-03-04T11:54:00.725Z,10.65
2019-03-04T11:59:23.292Z,10.70
2019-03-04T12:04:44.816Z,10.97
2019-03-04T12:10:11.499Z,11.00
2019-03-04T12:15:36.302Z,11.04
2019-03-04T12:20:58.361Z,11.20
2019-03-04T12:26:21.454Z,11.17
2019-03-04T12:31:59.195Z,11.44
2019-03-04T12:37:20.509Z,11.39
2019-03-04T12:42:43.150Z,11.46
2019-03-04T12:48:04.896Z,11.63
2019-03-04T12:53:36.881Z,11.60
2019-03-04T12:58:51.209Z,11.64
2019-03-04T13:04:14.052Z,11.63
2019-03-04T13:09:35.674Z,11.81
2019-03-04T13:14:58.618Z,11.81
2019-03-04T13:20:28.177Z,11.97
2019-03-04T13:25:49.635Z,12.09
2019-03-04T13:31:11.344Z,11.85
2019-03-04T13:36:34.358Z,12.04
2019-03-04T13:41:56.700Z,12.22
2019-03-04T13:47:19.493Z,12.18
2019-03-04T13:52:41.250Z,12.17
2019-03-04T13:58:07.462Z,12.15
2019-03-04T14:04:08.266Z,12.12
2019-03-04T14:09:31.213Z,12.11
2019-03-04T14:14:53.969Z,12.02
2019-03-04T14:20:16.592Z,12.11
2019-03-04T14:25:39.793Z,12.11
2019-03-04T14:31:04.398Z,11.93
2019-03-04T14:36:26.226Z,12.02
2019-03-04T14:41:48.011Z,12.03
2019-03-04T14:47:10.164Z,12.00
2019-03-04T14:52:31.793Z,12.00
2019-03-04T14:57:54.259Z,11.95
2019-03-04T15:03:23.238Z,11.86
2019-03-04T15:08:41.142Z,11.84
2019-03-04T15:14:03.537Z,11.80
2019-03-04T15:19:25.367Z,11.71
2019-03-04T15:24:47.094Z,11.66
2019-03-04T15:30:12.134Z,11.56
2019-03-04T15:35:37.564Z,11.45
2019-03-04T15:41:01.070Z,11.28
2019-03-04T15:46:23.305Z,10.80
2019-03-04T15:51:51.980Z,10.40
2019-03-04T15:58:20.653Z,10.16
2019-03-04T16:03:59.292Z,9.87
2019-03-04T16:09:27.241Z,9.57
2019-03-04T16:15:12.650Z,9.30
2019-03-04T16:20:37.940Z,9.07
2019-03-04T16:26:05.253Z,8.78
2019-03-04T16:31:27.395Z,8.62
2019-03-04T16:36:49.738Z,8.41
2019-03-04T16:42:11.936Z,8.24
2019-03-04T16:47:33.082Z,8.01
2019-03-04T16:52:55.453Z,7.80
2019-03-04T16:58:37.424Z,7.71
2019-03-04T17:04:00.807Z,7.58
2019-03-04T17:09:22.299Z,7.41
2019-03-04T17:14:45.397Z,7.41
2019-03-04T17:20:09.454Z,7.33
2019-03-04T17:25:31.559Z,7.25
2019-03-04T17:30:52.939Z,7.12
2019-03-04T17:36:15.264Z,7.03
2019-03-04T17:41:37.144Z,7.14
2019-03-04T17:47:02.742Z,7.14
2019-03-04T17:52:29.365Z,7.16
2019-03-04T17:57:59.214Z,7.12
2019-03-04T18:03:43.291Z,7.08
2019-03-04T18:09:07.955Z,7.11
2019-03-04T18:14:29.952Z,7.09
2019-03-04T18:19:52.191Z,6.21
2019-03-04T18:25:48.527Z,6.92
2019-03-04T18:31:51.031Z,6.93
2019-03-04T18:37:33.326Z,6.85
2019-03-04T18:43:26.424Z,6.65
2019-03-04T18:48:56.355Z,6.55
2019-03-04T18:54:20.292Z,6.41
2019-03-04T18:59:42.582Z,6.41
2019-03-04T19:05:05.334Z,6.26
2019-03-04T19:10:29.308Z,6.11
2019-03-04T19:15:52.307Z,5.89
2019-03-04T19:21:14.939Z,5.70
2019-03-04T19:26:37.225Z,5.56
2019-03-04T19:31:59.248Z,5.48
2019-03-04T19:37:32.097Z,5.35
2019-03-04T19:43:10.553Z,5.10
2019-03-04T19:48:34.630Z,5.04
2019-03-04T19:53:59.443Z,4.90
2019-03-04T19:59:22.051Z,4.84
2019-03-04T20:04:47.873Z,4.78
2019-03-04T20:10:11.119Z,4.64
2019-03-04T20:15:37.928Z,4.67
2019-03-04T20:20:59.556Z,4.65
2019-03-04T20:26:21.881Z,4.64
2019-03-04T20:31:46.382Z,4.49
2019-03-04T20:37:10.728Z,4.54
2019-03-04T20:42:34.938Z,4.39
2019-03-04T20:47:59.708Z,4.36
2019-03-04T20:53:24.271Z,4.34
2019-03-04T20:58:47.921Z,4.28
2019-03-04T21:04:21.827Z,4.26
2019-03-04T21:09:47.035Z,4.27
2019-03-04T21:15:11.048Z,4.32
2019-03-04T21:20:33.030Z,4.38
2019-03-04T21:26:09.413Z,4.26
2019-03-04T21:31:50.676Z,4.23
2019-03-04T21:37:22.177Z,4.19
2019-03-04T21:43:01.268Z,4.03
2019-03-04T21:48:37.542Z,3.89
2019-03-04T21:54:00.572Z,3.83
2019-03-04T21:59:24.875Z,4.00
2019-03-04T22:04:47.040Z,3.98
2019-03-04T22:10:12.043Z,3.98
2019-03-04T22:15:34.728Z,4.02
2019-03-04T22:20:56.921Z,4.05
2019-03-04T22:26:21.918Z,4.02
2019-03-04T22:31:50.102Z,3.86
2019-03-04T22:37:12.294Z,3.86
2019-03-04T22:42:34.597Z,3.73
2019-03-04T22:47:57.535Z,3.75
2019-03-04T22:53:19.634Z,3.79
2019-03-04T22:58:44.018Z,3.62
2019-03-04T23:04:35.842Z,3.62
2019-03-04T23:10:22.072Z,3.58
2019-03-04T23:15:46.121Z,3.46
2019-03-04T23:21:14.083Z,3.44
2019-03-04T23:26:35.700Z,3.40
2019-03-04T23:32:05.528Z,3.37
2019-03-04T23:37:27.966Z,3.47
2019-03-04T23:42:49.486Z,3.47
2019-03-04T23:48:13.561Z,3.62
2019-03-04T23:53:35.350Z,3.56
2019-03-04T23:58:57.586Z,3.45
